sensor_id;sensor_type;location;lat;lon;timestamp;pressure;altitude;pressure_sealevel;temperature;humidity
56198;BME280;42700;42.524;12.052;2023-04-16T00:01:32;100012.38;;;10.86;100.00
56198;BME280;42700;42.524;12.052;2023-04-16T00:03:57;99935.16;;;10.87;100.00
56198;BME280;42700;42.524;12.052;2023-04-16T00:06:23;99870.38;;;10.88;100.00
56198;BME280;42700;42.524;12.052;2023-04-16T00:08:48;99648.38;;;10.84;100.00
56198;BME280;42700;42.524;12.052;2023-04-16T00:11:16;99085.69;;;10.67;100.00
56198;BME280;42700;42.524;12.052;2023-04-16T00:13:41;98721.16;;;10.55;100.00
56198;BME280;42700;42.524;12.052;2023-04-16T00:16:07;98750.88;;;10.59;100.00
56198;BME280;42700;42.524;12.052;2023-04-16T00:18:32;99154.34;;;10.71;100.00
56198;BME280;42700;42.524;12.052;2023-04-16T00:20:57;98598.97;;;10.55;100.00
56198;BME280;42700;42.524;12.052;2023-04-16T00:23:23;97931.00;;;10.36;100.00
56198;BME280;42700;42.524;12.052;2023-04-16T00:25:49;98934.28;;;10.67;100.00
56198;BME280;42700;42.524;12.052;2023-04-16T00:28:15;99105.41;;;10.74;100.00
56198;BME280;42700;42.524;12.052;2023-04-16T00:30:41;98751.66;;;10.69;100.00
56198;BME280;42700;42.524;12.052;2023-04-16T00:33:06;98548.41;;;10.65;100.00
56198;BME280;42700;42.524;12.052;2023-04-16T00:35:32;99023.16;;;10.82;100.00
56198;BME280;42700;42.524;12.052;2023-04-16T00:37:57;98943.44;;;10.82;100.00
56198;BME280;42700;42.524;12.052;2023-04-16T00:40:25;99349.59;;;10.97;100.00
56198;BME280;42700;42.524;12.052;2023-04-16T00:42:51;98325.97;;;10.67;100.00
56198;BME280;42700;42.524;12.052;2023-04-16T00:45:16;98441.22;;;10.74;100.00
56198;BME280;42700;42.524;12.052;2023-04-16T00:47:42;98492.06;;;10.79;100.00
56198;BME280;42700;42.524;12.052;2023-04-16T00:50:08;97595.38;;;10.53;100.00
56198;BME280;42700;42.524;12.052;2023-04-16T00:52:34;98393.44;;;10.82;100.00
56198;BME280;42700;42.524;12.052;2023-04-16T00:55:00;97492.47;;;10.56;100.00
56198;BME280;42700;42.524;12.052;2023-04-16T00:57:25;97940.50;;;10.70;100.00
56198;BME280;42700;42.524;12.052;2023-04-16T00:59:52;97326.22;;;10.55;100.00
56198;BME280;42700;42.524;12.052;2023-04-16T01:02:18;97786.28;;;10.71;100.00
56198;BME280;42700;42.524;12.052;2023-04-16T01:04:43;97743.63;;;10.73;100.00
56198;BME280;42700;42.524;12.052;2023-04-16T01:07:09;97000.88;;;10.52;100.00
56198;BME280;42700;42.524;12.052;2023-04-16T01:09:35;98161.94;;;10.85;100.00
56198;BME280;42700;42.524;12.052;2023-04-16T01:12:00;97944.47;;;10.82;100.00
56198;BME280;42700;42.524;12.052;2023-04-16T01:14:26;97166.81;;;10.63;100.00
56198;BME280;42700;42.524;12.052;2023-04-16T01:16:51;97287.19;;;10.70;100.00
56198;BME280;42700;42.524;12.052;2023-04-16T01:19:17;96981.94;;;10.62;100.00
56198;BME280;42700;42.524;12.052;2023-04-16T01:21:42;96151.34;;;10.40;100.00
56198;BME280;42700;42.524;12.052;2023-04-16T01:24:08;95502.91;;;10.23;100.00
56198;BME280;42700;42.524;12.052;2023-04-16T01:26:33;97322.88;;;10.82;100.00
56198;BME280;42700;42.524;12.052;2023-04-16T01:28:59;96752.44;;;10.71;100.00
56198;BME280;42700;42.524;12.052;2023-04-16T01:31:25;96631.91;;;10.72;100.00
56198;BME280;42700;42.524;12.052;2023-04-16T01:33:50;96370.50;;;10.68;100.00
56198;BME280;42700;42.524;12.052;2023-04-16T01:36:16;96094.84;;;10.65;100.00
56198;BME280;42700;42.524;12.052;2023-04-16T01:38:41;96005.00;;;10.62;100.00
56198;BME280;42700;42.524;12.052;2023-04-16T01:41:07;96099.72;;;10.68;100.00
56198;BME280;42700;42.524;12.052;2023-04-16T01:43:32;96377.41;;;10.82;100.00
56198;BME280;42700;42.524;12.052;2023-04-16T01:46:06;95904.88;;;10.69;100.00
56198;BME280;42700;42.524;12.052;2023-04-16T01:48:36;95976.28;;;10.77;100.00
56198;BME280;42700;42.524;12.052;2023-04-16T01:51:02;95991.31;;;10.83;100.00
56198;BME280;42700;42.524;12.052;2023-04-16T01:53:29;95465.84;;;10.70;100.00
56198;BME280;42700;42.524;12.052;2023-04-16T01:55:54;95549.31;;;10.74;100.00
56198;BME280;42700;42.524;12.052;2023-04-16T01:58:20;94837.41;;;10.55;100.00
56198;BME280;42700;42.524;12.052;2023-04-16T02:00:45;95414.72;;;10.75;100.00
56198;BME280;42700;42.524;12.052;2023-04-16T02:03:11;94140.38;;;10.30;100.00
56198;BME280;42700;42.524;12.052;2023-04-16T02:05:36;93923.97;;;10.13;100.00
56198;BME280;42700;42.524;12.052;2023-04-16T02:08:02;94273.41;;;10.16;100.00
56198;BME280;42700;42.524;12.052;2023-04-16T02:10:27;94586.53;;;10.15;100.00
56198;BME280;42700;42.524;12.052;2023-04-16T02:12:53;94755.69;;;10.13;100.00
56198;BME280;42700;42.524;12.052;2023-04-16T02:15:18;95159.66;;;10.19;100.00
56198;BME280;42700;42.524;12.052;2023-04-16T02:17:44;95160.34;;;10.14;100.00
56198;BME280;42700;42.524;12.052;2023-04-16T02:20:10;94745.59;;;9.93;100.00
56198;BME280;42700;42.524;12.052;2023-04-16T02:22:36;95355.56;;;10.03;100.00
56198;BME280;42700;42.524;12.052;2023-04-16T02:25:02;95152.69;;;9.89;100.00
56198;BME280;42700;42.524;12.052;2023-04-16T02:27:27;94725.44;;;9.70;100.00
56198;BME280;42700;42.524;12.052;2023-04-16T02:29:53;95683.69;;;9.89;100.00
56198;BME280;42700;42.524;12.052;2023-04-16T02:32:18;96185.38;;;9.98;100.00
56198;BME280;42700;42.524;12.052;2023-04-16T02:34:44;96780.31;;;10.12;100.00
56198;BME280;42700;42.524;12.052;2023-04-16T02:37:09;96213.16;;;9.89;100.00
56198;BME280;42700;42.524;12.052;2023-04-16T02:39:35;95732.88;;;9.67;100.00
56198;BME280;42700;42.524;12.052;2023-04-16T02:42:00;96455.44;;;9.81;100.00
56198;BME280;42700;42.524;12.052;2023-04-16T02:44:26;97395.09;;;10.03;100.00
56198;BME280;42700;42.524;12.052;2023-04-16T02:46:52;96876.00;;;9.82;100.00
56198;BME280;42700;42.524;12.052;2023-04-16T02:49:18;97659.06;;;9.99;100.00
56198;BME280;42700;42.524;12.052;2023-04-16T02:51:43;97135.81;;;9.75;100.00
56198;BME280;42700;42.524;12.052;2023-04-16T02:54:08;98061.66;;;9.97;100.00
56198;BME280;42700;42.524;12.052;2023-04-16T02:56:34;97454.69;;;9.69;100.00
56198;BME280;42700;42.524;12.052;2023-04-16T02:59:00;97888.91;;;9.75;100.00
56198;BME280;42700;42.524;12.052;2023-04-16T03:01:25;98148.81;;;9.75;100.00
56198;BME280;42700;42.524;12.052;2023-04-16T03:03:52;98562.94;;;9.81;100.00
56198;BME280;42700;42.524;12.052;2023-04-16T03:06:17;98638.53;;;9.76;100.00
56198;BME280;42700;42.524;12.052;2023-04-16T03:08:43;98174.75;;;9.55;100.00
56198;BME280;42700;42.524;12.052;2023-04-16T03:11:08;99451.91;;;9.89;100.00
56198;BME280;42700;42.524;12.052;2023-04-16T03:13:34;98834.97;;;9.65;100.00
56198;BME280;42700;42.524;12.052;2023-04-16T03:16:00;98587.13;;;9.50;100.00
56198;BME280;42700;42.524;12.052;2023-04-16T03:18:25;99745.50;;;9.78;100.00
56198;BME280;42700;42.524;12.052;2023-04-16T03:20:51;99034.16;;;9.52;100.00
56198;BME280;42700;42.524;12.052;2023-04-16T03:23:17;100243.94;;;9.85;100.00
56198;BME280;42700;42.524;12.052;2023-04-16T03:25:42;100593.84;;;9.91;100.00
56198;BME280;42700;42.524;12.052;2023-04-16T03:28:11;99655.06;;;9.59;100.00
56198;BME280;42700;42.524;12.052;2023-04-16T03:30:37;100814.34;;;9.88;100.00
56198;BME280;42700;42.524;12.052;2023-04-16T03:33:02;100997.34;;;9.91;100.00
56198;BME280;42700;42.524;12.052;2023-04-16T03:35:28;101696.47;;;10.09;100.00
56198;BME280;42700;42.524;12.052;2023-04-16T03:37:53;101727.50;;;10.08;100.00
56198;BME280;42700;42.524;12.052;2023-04-16T03:40:19;101711.56;;;10.08;100.00
56198;BME280;42700;42.524;12.052;2023-04-16T03:42:44;101225.47;;;9.94;100.00
56198;BME280;42700;42.524;12.052;2023-04-16T03:45:10;102379.28;;;10.28;100.00
56198;BME280;42700;42.524;12.052;2023-04-16T03:47:35;102578.34;;;10.34;100.00
56198;BME280;42700;42.524;12.052;2023-04-16T03:50:01;102780.09;;;10.42;100.00
56198;BME280;42700;42.524;12.052;2023-04-16T03:52:26;102723.41;;;10.41;100.00
56198;BME280;42700;42.524;12.052;2023-04-16T03:54:52;102602.97;;;10.39;100.00
56198;BME280;42700;42.524;12.052;2023-04-16T03:57:17;102427.69;;;10.36;100.00
56198;BME280;42700;42.524;12.052;2023-04-16T03:59:43;102668.41;;;10.43;100.00
56198;BME280;42700;42.524;12.052;2023-04-16T04:02:09;102508.19;;;10.40;100.00
56198;BME280;42700;42.524;12.052;2023-04-16T04:04:34;102025.00;;;10.27;100.00
56198;BME280;42700;42.524;12.052;2023-04-16T04:07:00;101855.19;;;10.23;100.00
56198;BME280;42700;42.524;12.052;2023-04-16T04:09:25;101242.59;;;10.04;100.00
56198;BME280;42700;42.524;12.052;2023-04-16T04:11:51;101725.19;;;10.20;100.00
56198;BME280;42700;42.524;12.052;2023-04-16T04:14:16;101094.06;;;10.01;100.00
56198;BME280;42700;42.524;12.052;2023-04-16T04:16:42;101297.44;;;10.05;100.00
56198;BME280;42700;42.524;12.052;2023-04-16T04:19:07;100408.91;;;9.78;100.00
56198;BME280;42700;42.524;12.052;2023-04-16T04:21:33;101126.16;;;9.98;100.00
56198;BME280;42700;42.524;12.052;2023-04-16T04:23:58;100557.41;;;9.80;100.00
56198;BME280;42700;42.524;12.052;2023-04-16T04:26:24;101271.88;;;10.03;100.00
56198;BME280;42700;42.524;12.052;2023-04-16T04:28:49;100250.94;;;9.73;100.00
56198;BME280;42700;42.524;12.052;2023-04-16T04:31:15;100391.25;;;9.77;100.00
56198;BME280;42700;42.524;12.052;2023-04-16T04:33:40;100591.63;;;9.85;100.00
56198;BME280;42700;42.524;12.052;2023-04-16T04:36:06;100745.25;;;9.89;100.00
56198;BME280;42700;42.524;12.052;2023-04-16T04:38:31;100345.22;;;9.78;100.00
56198;BME280;42700;42.524;12.052;2023-04-16T04:40:57;100459.84;;;9.84;100.00
56198;BME280;42700;42.524;12.052;2023-04-16T04:43:23;100193.22;;;9.76;100.00
56198;BME280;42700;42.524;12.052;2023-04-16T04:45:48;100441.81;;;9.89;100.00
56198;BME280;42700;42.524;12.052;2023-04-16T04:48:14;99957.66;;;9.80;100.00
56198;BME280;42700;42.524;12.052;2023-04-16T04:50:40;99577.88;;;9.73;100.00
56198;BME280;42700;42.524;12.052;2023-04-16T04:53:06;99021.03;;;9.60;100.00
56198;BME280;42700;42.524;12.052;2023-04-16T04:55:43;99919.44;;;9.94;100.00
56198;BME280;42700;42.524;12.052;2023-04-16T04:58:08;99474.22;;;9.86;100.00
56198;BME280;42700;42.524;12.052;2023-04-16T05:00:34;98900.13;;;9.77;100.00
56198;BME280;42700;42.524;12.052;2023-04-16T05:03:01;98263.13;;;9.64;100.00
56198;BME280;42700;42.524;12.052;2023-04-16T05:05:27;98513.69;;;9.78;100.00
56198;BME280;42700;42.524;12.052;2023-04-16T05:07:52;98594.56;;;9.92;100.00
56198;BME280;42700;42.524;12.052;2023-04-16T05:10:18;98109.06;;;9.84;100.00
56198;BME280;42700;42.524;12.052;2023-04-16T05:12:44;97839.50;;;9.83;100.00
56198;BME280;42700;42.524;12.052;2023-04-16T05:15:10;97641.06;;;9.86;100.00
56198;BME280;42700;42.524;12.052;2023-04-16T05:17:35;98119.38;;;10.03;100.00
56198;BME280;42700;42.524;12.052;2023-04-16T05:20:01;98424.00;;;10.26;100.00
56198;BME280;42700;42.524;12.052;2023-04-16T05:22:26;97857.66;;;10.19;100.00
56198;BME280;42700;42.524;12.052;2023-04-16T05:24:52;96914.91;;;9.96;100.00
56198;BME280;42700;42.524;12.052;2023-04-16T05:27:17;96620.72;;;9.95;100.00
56198;BME280;42700;42.524;12.052;2023-04-16T05:29:43;96772.75;;;10.09;100.00
56198;BME280;42700;42.524;12.052;2023-04-16T05:32:08;96322.44;;;10.04;100.00
56198;BME280;42700;42.524;12.052;2023-04-16T05:34:34;96846.16;;;10.30;100.00
56198;BME280;42700;42.524;12.052;2023-04-16T05:36:59;96126.56;;;10.08;100.00
56198;BME280;42700;42.524;12.052;2023-04-16T05:39:25;95989.88;;;10.12;100.00
56198;BME280;42700;42.524;12.052;2023-04-16T05:41:51;96886.28;;;10.48;100.00
56198;BME280;42700;42.524;12.052;2023-04-16T05:44:16;93791.50;;;9.62;100.00
56198;BME280;42700;42.524;12.052;2023-04-16T05:46:42;95671.22;;;10.27;100.00
56198;BME280;42700;42.524;12.052;2023-04-16T05:49:09;95230.78;;;10.22;100.00
56198;BME280;42700;42.524;12.052;2023-04-16T05:51:35;94510.69;;;10.14;100.00
56198;BME280;42700;42.524;12.052;2023-04-16T05:54:00;95900.03;;;10.66;100.00
56198;BME280;42700;42.524;12.052;2023-04-16T05:56:26;95194.94;;;10.60;100.00
56198;BME280;42700;42.524;12.052;2023-04-16T05:58:51;97296.06;;;11.42;100.00
56198;BME280;42700;42.524;12.052;2023-04-16T06:01:17;96828.41;;;11.60;100.00
56198;BME280;42700;42.524;12.052;2023-04-16T06:03:42;95035.69;;;11.33;100.00
56198;BME280;42700;42.524;12.052;2023-04-16T06:06:09;96712.34;;;11.99;100.00
56198;BME280;42700;42.524;12.052;2023-04-16T06:08:35;95488.56;;;11.82;100.00
56198;BME280;42700;42.524;12.052;2023-04-16T06:11:00;94289.78;;;11.66;100.00
56198;BME280;42700;42.524;12.052;2023-04-16T06:13:26;96131.56;;;12.48;100.00
56198;BME280;42700;42.524;12.052;2023-04-16T06:15:51;93391.56;;;11.85;100.00
56198;BME280;42700;42.524;12.052;2023-04-16T06:18:17;92753.81;;;11.71;100.00
56198;BME280;42700;42.524;12.052;2023-04-16T06:20:42;93701.19;;;12.16;100.00
56198;BME280;42700;42.524;12.052;2023-04-16T06:23:08;91096.88;;;11.48;100.00
56198;BME280;42700;42.524;12.052;2023-04-16T06:25:33;92650.50;;;12.00;100.00
56198;BME280;42700;42.524;12.052;2023-04-16T06:27:59;90307.59;;;11.37;100.00
56198;BME280;42700;42.524;12.052;2023-04-16T06:30:25;91155.41;;;11.68;100.00
56198;BME280;42700;42.524;12.052;2023-04-16T06:32:50;90977.91;;;11.70;100.00
56198;BME280;42700;42.524;12.052;2023-04-16T06:35:16;90253.22;;;11.54;100.00
56198;BME280;42700;42.524;12.052;2023-04-16T06:37:44;89440.28;;;11.35;100.00
56198;BME280;42700;42.524;12.052;2023-04-16T06:40:10;90007.50;;;11.56;100.00
56198;BME280;42700;42.524;12.052;2023-04-16T06:42:35;88381.19;;;11.07;100.00
56198;BME280;42700;42.524;12.052;2023-04-16T06:45:01;88587.13;;;11.14;100.00
56198;BME280;42700;42.524;12.052;2023-04-16T06:47:26;87749.88;;;10.93;100.00
56198;BME280;42700;42.524;12.052;2023-04-16T06:49:52;88514.38;;;11.15;100.00
56198;BME280;42700;42.524;12.052;2023-04-16T06:52:17;89478.94;;;11.47;100.00
56198;BME280;42700;42.524;12.052;2023-04-16T06:54:43;89401.22;;;11.47;100.00
56198;BME280;42700;42.524;12.052;2023-04-16T06:57:08;90611.66;;;11.84;100.00
56198;BME280;42700;42.524;12.052;2023-04-16T06:59:35;91756.97;;;12.19;100.00
56198;BME280;42700;42.524;12.052;2023-04-16T07:02:00;93414.09;;;12.72;100.00
56198;BME280;42700;42.524;12.052;2023-04-16T07:04:26;92854.44;;;12.71;100.00
56198;BME280;42700;42.524;12.052;2023-04-16T07:06:51;91964.69;;;12.64;100.00
56198;BME280;42700;42.524;12.052;2023-04-16T07:09:17;92483.41;;;12.90;100.00
56198;BME280;42700;42.524;12.052;2023-04-16T07:11:43;93031.00;;;13.21;100.00
56198;BME280;42700;42.524;12.052;2023-04-16T07:14:08;91642.19;;;12.95;100.00
56198;BME280;42700;42.524;12.052;2023-04-16T07:16:34;92539.03;;;13.30;100.00
56198;BME280;42700;42.524;12.052;2023-04-16T07:19:01;90980.81;;;13.01;100.00
56198;BME280;42700;42.524;12.052;2023-04-16T07:21:27;89642.97;;;12.67;100.00
56198;BME280;42700;42.524;12.052;2023-04-16T07:23:52;91348.81;;;13.18;100.00
56198;BME280;42700;42.524;12.052;2023-04-16T07:26:18;90484.66;;;12.95;100.00
56198;BME280;42700;42.524;12.052;2023-04-16T07:28:43;91764.84;;;13.43;100.00
56198;BME280;42700;42.524;12.052;2023-04-16T07:31:09;90320.53;;;12.99;100.00
56198;BME280;42700;42.524;12.052;2023-04-16T07:33:35;91401.69;;;13.35;100.00
56198;BME280;42700;42.524;12.052;2023-04-16T07:36:00;90509.97;;;13.16;100.00
56198;BME280;42700;42.524;12.052;2023-04-16T07:38:26;88905.00;;;12.70;100.00
56198;BME280;42700;42.524;12.052;2023-04-16T07:40:51;89179.06;;;12.83;100.00
56198;BME280;42700;42.524;12.052;2023-04-16T07:43:17;87839.03;;;12.48;100.00
56198;BME280;42700;42.524;12.052;2023-04-16T07:45:42;87157.16;;;12.26;100.00
56198;BME280;42700;42.524;12.052;2023-04-16T07:48:08;88901.81;;;12.79;100.00
56198;BME280;42700;42.524;12.052;2023-04-16T07:50:33;88955.72;;;12.83;100.00
56198;BME280;42700;42.524;12.052;2023-04-16T07:52:59;88031.94;;;12.58;100.00
56198;BME280;42700;42.524;12.052;2023-04-16T07:55:24;87881.63;;;12.57;100.00
56198;BME280;42700;42.524;12.052;2023-04-16T07:57:50;86040.56;;;11.99;100.00
56198;BME280;42700;42.524;12.052;2023-04-16T08:00:15;87785.44;;;12.49;100.00
56198;BME280;42700;42.524;12.052;2023-04-16T08:02:42;86336.69;;;12.06;100.00
56198;BME280;42700;42.524;12.052;2023-04-16T08:05:07;88014.59;;;12.53;100.00
56198;BME280;42700;42.524;12.052;2023-04-16T08:07:33;88524.16;;;12.66;100.00
56198;BME280;42700;42.524;12.052;2023-04-16T08:09:58;88496.44;;;12.67;100.00
56198;BME280;42700;42.524;12.052;2023-04-16T08:12:24;90701.41;;;13.01;100.00
56198;BME280;42700;42.524;12.052;2023-04-16T08:14:49;91065.38;;;13.11;100.00
56198;BME280;42700;42.524;12.052;2023-04-16T08:17:15;92217.13;;;13.50;100.00
56198;BME280;42700;42.524;12.052;2023-04-16T08:19:44;90751.72;;;13.14;100.00
56198;BME280;42700;42.524;12.052;2023-04-16T08:22:10;91867.91;;;13.55;100.00
56198;BME280;42700;42.524;12.052;2023-04-16T08:24:36;92589.63;;;13.86;100.00
56198;BME280;42700;42.524;12.052;2023-04-16T08:27:01;96568.41;;;15.16;100.00
56198;BME280;42700;42.524;12.052;2023-04-16T08:29:27;94526.16;;;14.81;100.00
56198;BME280;42700;42.524;12.052;2023-04-16T08:31:52;91009.22;;;13.93;100.00
56198;BME280;42700;42.524;12.052;2023-04-16T08:34:18;92161.91;;;14.33;100.00
56198;BME280;42700;42.524;12.052;2023-04-16T08:36:44;92113.56;;;14.34;100.00
56198;BME280;42700;42.524;12.052;2023-04-16T08:39:10;91548.72;;;14.28;100.00
56198;BME280;42700;42.524;12.052;2023-04-16T08:41:36;89229.50;;;13.59;100.00
56198;BME280;42700;42.524;12.052;2023-04-16T08:44:04;89244.31;;;13.60;100.00
56198;BME280;42700;42.524;12.052;2023-04-16T08:46:31;88630.81;;;13.44;100.00
56198;BME280;42700;42.524;12.052;2023-04-16T08:48:58;88489.09;;;13.40;100.00
56198;BME280;42700;42.524;12.052;2023-04-16T08:51:25;88866.06;;;13.51;100.00
56198;BME280;42700;42.524;12.052;2023-04-16T08:53:58;88797.84;;;13.57;100.00
56198;BME280;42700;42.524;12.052;2023-04-16T08:56:24;85560.59;;;12.63;100.00
56198;BME280;42700;42.524;12.052;2023-04-16T08:58:50;87877.22;;;13.24;100.00
56198;BME280;42700;42.524;12.052;2023-04-16T09:01:16;85270.19;;;12.49;100.00
56198;BME280;42700;42.524;12.052;2023-04-16T09:03:46;86329.81;;;12.76;100.00
56198;BME280;42700;42.524;12.052;2023-04-16T09:06:12;86434.94;;;12.77;100.00
56198;BME280;42700;42.524;12.052;2023-04-16T09:08:38;85792.38;;;12.58;100.00
56198;BME280;42700;42.524;12.052;2023-04-16T09:11:03;88371.84;;;13.31;100.00
56198;BME280;42700;42.524;12.052;2023-04-16T09:13:30;87359.59;;;13.08;100.00
56198;BME280;42700;42.524;12.052;2023-04-16T09:15:56;88313.97;;;13.35;100.00
56198;BME280;42700;42.524;12.052;2023-04-16T09:18:22;90137.50;;;13.88;100.00
56198;BME280;42700;42.524;12.052;2023-04-16T09:20:47;89884.75;;;13.90;100.00
56198;BME280;42700;42.524;12.052;2023-04-16T09:23:13;89236.47;;;13.76;100.00
56198;BME280;42700;42.524;12.052;2023-04-16T09:25:39;89434.19;;;13.88;100.00
56198;BME280;42700;42.524;12.052;2023-04-16T09:28:04;90203.72;;;14.14;100.00
56198;BME280;42700;42.524;12.052;2023-04-16T09:30:30;89672.28;;;14.05;100.00
56198;BME280;42700;42.524;12.052;2023-04-16T09:33:12;88898.41;;;13.89;100.00
56198;BME280;42700;42.524;12.052;2023-04-16T09:35:44;86296.00;;;13.23;100.00
56198;BME280;42700;42.524;12.052;2023-04-16T09:38:10;86484.13;;;13.28;100.00
56198;BME280;42700;42.524;12.052;2023-04-16T09:40:35;85240.28;;;12.90;100.00
56198;BME280;42700;42.524;12.052;2023-04-16T09:43:02;85567.81;;;12.97;100.00
56198;BME280;42700;42.524;12.052;2023-04-16T09:45:39;86527.63;;;13.25;100.00
56198;BME280;42700;42.524;12.052;2023-04-16T09:48:13;85213.97;;;12.87;100.00
56198;BME280;42700;42.524;12.052;2023-04-16T09:50:38;86666.44;;;13.29;100.00
56198;BME280;42700;42.524;12.052;2023-04-16T09:53:04;87506.69;;;13.55;100.00
56198;BME280;42700;42.524;12.052;2023-04-16T09:55:29;92447.91;;;14.93;100.00
56198;BME280;42700;42.524;12.052;2023-04-16T09:57:58;90460.50;;;14.54;100.00
56198;BME280;42700;42.524;12.052;2023-04-16T10:00:24;93364.00;;;15.54;100.00
56198;BME280;42700;42.524;12.052;2023-04-16T10:02:52;92445.38;;;15.46;100.00
56198;BME280;42700;42.524;12.052;2023-04-16T10:05:27;92933.94;;;15.82;100.00
56198;BME280;42700;42.524;12.052;2023-04-16T10:07:53;91659.47;;;15.71;100.00
56198;BME280;42700;42.524;12.052;2023-04-16T10:10:23;93933.72;;;16.62;100.00
56198;BME280;42700;42.524;12.052;2023-04-16T10:12:49;92929.84;;;16.60;100.00
56198;BME280;42700;42.524;12.052;2023-04-16T10:15:15;91401.41;;;16.37;100.00
56198;BME280;42700;42.524;12.052;2023-04-16T10:17:40;91317.59;;;16.67;100.00
56198;BME280;42700;42.524;12.052;2023-04-16T10:20:07;90414.44;;;16.75;100.00
56198;BME280;42700;42.524;12.052;2023-04-16T10:22:33;93558.84;;;17.92;100.00
56198;BME280;42700;42.524;12.052;2023-04-16T10:24:58;87464.75;;;16.56;100.00
56198;BME280;42700;42.524;12.052;2023-04-16T10:27:24;83773.63;;;15.64;100.00
56198;BME280;42700;42.524;12.052;2023-04-16T10:29:51;87161.03;;;16.64;100.00
56198;BME280;42700;42.524;12.052;2023-04-16T10:32:16;90204.88;;;17.55;100.00
56198;BME280;42700;42.524;12.052;2023-04-16T10:34:42;85315.03;;;16.36;100.00
56198;BME280;42700;42.524;12.052;2023-04-16T10:37:08;90386.78;;;17.87;100.00
56198;BME280;42700;42.524;12.052;2023-04-16T10:39:34;94363.19;;;19.65;100.00
56198;BME280;42700;42.524;12.052;2023-04-16T10:42:08;86325.88;;;17.96;100.00
56198;BME280;42700;42.524;12.052;2023-04-16T10:44:34;83624.22;;;17.06;100.00
56198;BME280;42700;42.524;12.052;2023-04-16T10:47:00;85278.53;;;17.53;100.00
56198;BME280;42700;42.524;12.052;2023-04-16T10:49:25;85637.84;;;17.86;100.00
56198;BME280;42700;42.524;12.052;2023-04-16T10:51:52;88530.28;;;18.63;100.00
56198;BME280;42700;42.524;12.052;2023-04-16T10:54:31;84010.78;;;17.62;100.00
56198;BME280;42700;42.524;12.052;2023-04-16T10:56:57;76673.41;;;15.39;100.00
56198;BME280;42700;42.524;12.052;2023-04-16T10:59:23;79573.84;;;16.07;100.00
56198;BME280;42700;42.524;12.052;2023-04-16T11:01:52;75303.47;;;14.77;100.00
56198;BME280;42700;42.524;12.052;2023-04-16T11:07:18;77333.63;;;15.35;100.00
56198;BME280;42700;42.524;12.052;2023-04-16T11:12:06;78287.94;;;15.48;100.00
56198;BME280;42700;42.524;12.052;2023-04-16T11:14:34;79967.75;;;16.02;100.00
56198;BME280;42700;42.524;12.052;2023-04-16T11:17:01;83096.06;;;17.03;100.00
56198;BME280;42700;42.524;12.052;2023-04-16T11:19:27;82229.88;;;16.97;100.00
56198;BME280;42700;42.524;12.052;2023-04-16T11:21:53;83414.41;;;17.46;100.00
56198;BME280;42700;42.524;12.052;2023-04-16T11:24:19;79789.97;;;16.61;100.00
56198;BME280;42700;42.524;12.052;2023-04-16T11:26:44;84538.41;;;17.99;100.00
56198;BME280;42700;42.524;12.052;2023-04-16T11:29:13;82129.13;;;17.55;100.00
56198;BME280;42700;42.524;12.052;2023-04-16T11:31:39;78487.13;;;16.61;100.00
56198;BME280;42700;42.524;12.052;2023-04-16T11:34:06;76527.28;;;16.09;100.00
56198;BME280;42700;42.524;12.052;2023-04-16T11:36:45;77207.59;;;16.28;100.00
56198;BME280;42700;42.524;12.052;2023-04-16T11:39:11;79556.09;;;16.91;100.00
56198;BME280;42700;42.524;12.052;2023-04-16T11:41:46;74935.06;;;15.73;100.00
56198;BME280;42700;42.524;12.052;2023-04-16T11:44:24;82187.56;;;17.61;100.00
56198;BME280;42700;42.524;12.052;2023-04-16T11:46:50;83297.09;;;18.03;100.00
56198;BME280;42700;42.524;12.052;2023-04-16T11:49:16;79984.06;;;17.42;100.00
56198;BME280;42700;42.524;12.052;2023-04-16T11:51:42;84891.47;;;18.85;100.00
56198;BME280;42700;42.524;12.052;2023-04-16T11:54:08;78945.97;;;17.47;100.00
56198;BME280;42700;42.524;12.052;2023-04-16T11:56:35;83981.81;;;18.94;100.00
56198;BME280;42700;42.524;12.052;2023-04-16T12:01:36;78300.78;;;17.98;100.00
56198;BME280;42700;42.524;12.052;2023-04-16T12:04:02;80475.50;;;18.61;100.00
56198;BME280;42700;42.524;12.052;2023-04-16T12:06:28;80928.84;;;18.92;100.00
56198;BME280;42700;42.524;12.052;2023-04-16T12:08:53;79084.69;;;18.71;100.00
56198;BME280;42700;42.524;12.052;2023-04-16T12:11:19;73413.41;;;17.21;100.00
56198;BME280;42700;42.524;12.052;2023-04-16T12:16:43;76064.69;;;17.91;100.00
56198;BME280;42700;42.524;12.052;2023-04-16T12:19:09;73019.09;;;17.17;100.00
56198;BME280;42700;42.524;12.052;2023-04-16T12:21:36;75636.06;;;17.87;100.00
56198;BME280;42700;42.524;12.052;2023-04-16T12:24:01;81432.94;;;19.47;100.00
56198;BME280;42700;42.524;12.052;2023-04-16T12:26:34;74959.84;;;17.94;100.00
56198;BME280;42700;42.524;12.052;2023-04-16T12:29:12;76353.22;;;18.35;100.00
56198;BME280;42700;42.524;12.052;2023-04-16T12:31:38;75557.06;;;18.14;100.00
56198;BME280;42700;42.524;12.052;2023-04-16T12:34:03;69452.44;;;16.51;100.00
56198;BME280;42700;42.524;12.052;2023-04-16T12:36:29;81605.06;;;19.61;100.00
56198;BME280;42700;42.524;12.052;2023-04-16T12:38:55;76897.16;;;18.59;100.00
56198;BME280;42700;42.524;12.052;2023-04-16T12:41:21;73608.66;;;17.76;100.00
56198;BME280;42700;42.524;12.052;2023-04-16T12:43:46;73864.59;;;17.80;100.00
56198;BME280;42700;42.524;12.052;2023-04-16T12:46:12;72718.00;;;17.41;100.00